createdAt,value
2023-02-26T00:01:43.271Z,98098.41
2023-02-26T00:04:11.423Z,98096.66
2023-02-26T00:06:52.441Z,98096.53
2023-02-26T00:09:21.405Z,98093.91
2023-02-26T00:11:50.046Z,98089.63
2023-02-26T00:14:18.099Z,98088.75
2023-02-26T00:16:54.151Z,98083.44
2023-02-26T00:19:21.698Z,98086.63
2023-02-26T00:21:49.291Z,98080.50
2023-02-26T00:24:16.607Z,98076.19
2023-02-26T00:26:43.882Z,98071.16
2023-02-26T00:29:11.512Z,98065.78
2023-02-26T00:31:39.260Z,98063.53
2023-02-26T00:34:06.803Z,98062.06
2023-02-26T00:37:53.115Z,98056.75
2023-02-26T00:40:41.423Z,98064.59
2023-02-26T00:43:26.684Z,98064.19
2023-02-26T00:46:22.152Z,98068.94
2023-02-26T00:49:17.949Z,98062.13
2023-02-26T00:51:59.150Z,98056.81
2023-02-26T00:54:30.201Z,98056.94
2023-02-26T00:56:59.741Z,98049.59
2023-02-26T00:59:27.126Z,98061.34
2023-02-26T01:01:56.526Z,98060.03
2023-02-26T01:04:25.230Z,98046.38
2023-02-26T01:06:58.248Z,98044.63
2023-02-26T01:09:35.494Z,98034.25
2023-02-26T01:12:09.523Z,98030.78
2023-02-26T01:14:37.763Z,98033.91
2023-02-26T01:17:32.162Z,98035.09
2023-02-26T01:20:37.414Z,98033.66
2023-02-26T01:23:15.371Z,98029.75
2023-02-26T01:26:05.075Z,98016.66
2023-02-26T01:28:33.160Z,98010.31
2023-02-26T01:31:05.846Z,98005.50
2023-02-26T01:33:47.677Z,98006.28
2023-02-26T01:36:24.905Z,98002.31
2023-02-26T01:39:17.252Z,98002.91
2023-02-26T01:41:55.295Z,97996.97
2023-02-26T01:45:36.201Z,97995.13
2023-02-26T01:48:19.820Z,97994.75
2023-02-26T01:50:47.069Z,97983.00
2023-02-26T01:53:18.084Z,97984.19
2023-02-26T01:55:51.896Z,97985.59
2023-02-26T01:58:21.189Z,98000.69
2023-02-26T02:00:48.374Z,97996.28
2023-02-26T02:03:16.087Z,98002.16
2023-02-26T02:05:52.443Z,97996.34
2023-02-26T02:08:21.449Z,97993.38
2023-02-26T02:10:52.563Z,97998.19
2023-02-26T02:13:52.248Z,97996.75
2023-02-26T02:17:46.622Z,97991.78
2023-02-26T02:20:38.355Z,97999.34
2023-02-26T02:23:30.245Z,98005.50
2023-02-26T02:26:47.919Z,98007.19
2023-02-26T02:29:54.128Z,98005.16
2023-02-26T02:32:39.010Z,97995.47
2023-02-26T02:35:46.318Z,98002.84
2023-02-26T02:38:25.120Z,97997.25
2023-02-26T02:41:13.535Z,98005.16
2023-02-26T02:43:43.224Z,98006.00
2023-02-26T02:46:25.002Z,98007.22
2023-02-26T02:49:10.092Z,98009.38
2023-02-26T02:51:55.430Z,98004.28
2023-02-26T02:54:41.676Z,98018.13
2023-02-26T02:57:34.868Z,98011.38
2023-02-26T03:00:10.626Z,98012.13
2023-02-26T03:03:17.865Z,98014.22
2023-02-26T03:05:45.061Z,98021.63
2023-02-26T03:08:21.377Z,98016.13
2023-02-26T03:10:48.618Z,98014.28
2023-02-26T03:13:23.928Z,98007.56
2023-02-26T03:16:28.302Z,98015.59
2023-02-26T03:19:43.497Z,98016.03
2023-02-26T03:22:43.545Z,98023.94
2023-02-26T03:25:31.420Z,98024.50
2023-02-26T03:28:57.042Z,98028.75
2023-02-26T03:31:37.767Z,98033.44
2023-02-26T03:34:26.347Z,98039.94
2023-02-26T03:37:09.109Z,98043.38
2023-02-26T03:39:47.224Z,98046.84
2023-02-26T03:42:34.773Z,98038.41
2023-02-26T03:45:14.183Z,98042.63
2023-02-26T03:47:47.079Z,98045.41
2023-02-26T03:50:28.269Z,98039.22
2023-02-26T03:54:04.752Z,98048.34
2023-02-26T03:56:46.968Z,98056.81
2023-02-26T03:59:20.558Z,98060.59
2023-02-26T04:02:51.508Z,98062.53
2023-02-26T04:05:26.706Z,98062.84
2023-02-26T04:07:54.913Z,98068.09
2023-02-26T04:10:40.291Z,98075.44
2023-02-26T04:13:08.125Z,98078.16
2023-02-26T04:15:35.420Z,98065.84
2023-02-26T04:18:02.834Z,98072.31
2023-02-26T04:20:30.157Z,98075.47
2023-02-26T04:22:57.588Z,98082.41
2023-02-26T04:25:24.938Z,98088.25
2023-02-26T04:27:53.333Z,98095.50
2023-02-26T04:30:20.665Z,98097.25
2023-02-26T04:32:48.678Z,98092.41
2023-02-26T04:35:16.366Z,98092.34
2023-02-26T04:37:43.722Z,98094.81
2023-02-26T04:40:12.443Z,98103.66
2023-02-26T04:42:39.845Z,98100.44
2023-02-26T04:45:08.005Z,98103.31
2023-02-26T04:47:37.827Z,98113.72
2023-02-26T04:50:06.091Z,98119.38
2023-02-26T04:52:33.379Z,98121.69
2023-02-26T04:55:00.727Z,98125.03
2023-02-26T04:57:28.873Z,98128.69
2023-02-26T04:59:56.159Z,98126.84
2023-02-26T05:02:27.825Z,98125.44
2023-02-26T05:04:55.075Z,98129.84
2023-02-26T05:07:22.325Z,98140.72
2023-02-26T05:09:50.220Z,98160.72
2023-02-26T05:12:17.982Z,98152.69
2023-02-26T05:14:45.170Z,98162.50
2023-02-26T05:17:12.528Z,98158.09
2023-02-26T05:19:40.089Z,98154.84
2023-02-26T05:22:07.439Z,98168.13
2023-02-26T05:24:35.165Z,98174.66
2023-02-26T05:27:02.366Z,98175.75
2023-02-26T05:29:31.210Z,98181.56
2023-02-26T05:31:59.614Z,98180.72
2023-02-26T05:34:26.953Z,98189.16
2023-02-26T05:36:56.384Z,98196.47
2023-02-26T05:39:23.624Z,98197.78
2023-02-26T05:41:51.925Z,98199.25
2023-02-26T05:44:19.227Z,98206.44
2023-02-26T05:46:46.660Z,98205.97
2023-02-26T05:49:13.882Z,98216.38
2023-02-26T05:51:42.779Z,98220.44
2023-02-26T05:54:11.332Z,98215.97
2023-02-26T05:56:38.581Z,98226.03
2023-02-26T05:59:06.397Z,98220.31
2023-02-26T06:01:34.246Z,98229.53
2023-02-26T06:04:01.568Z,98231.56
2023-02-26T06:06:28.832Z,98244.25
2023-02-26T06:08:56.084Z,98249.63
2023-02-26T06:11:23.371Z,98259.75
2023-02-26T06:13:50.876Z,98256.88
2023-02-26T06:16:20.352Z,98266.88
2023-02-26T06:18:48.543Z,98275.16
2023-02-26T06:21:17.511Z,98289.75
2023-02-26T06:23:45.743Z,98297.47
2023-02-26T06:26:12.961Z,98309.63
2023-02-26T06:28:40.297Z,98315.97
2023-02-26T06:31:07.420Z,98316.78
2023-02-26T06:33:34.578Z,98320.63
2023-02-26T06:36:02.928Z,98331.09
2023-02-26T06:38:30.133Z,98330.28
2023-02-26T06:40:57.612Z,98347.59
2023-02-26T06:43:24.936Z,98356.91
2023-02-26T06:45:52.236Z,98365.78
2023-02-26T06:48:19.467Z,98375.53
2023-02-26T06:50:46.649Z,98387.25
2023-02-26T06:53:13.841Z,98399.63
2023-02-26T06:55:51.046Z,98414.66
2023-02-26T06:58:20.100Z,98428.81
2023-02-26T07:00:47.825Z,98439.25
2023-02-26T07:03:18.184Z,98440.50
2023-02-26T07:05:46.573Z,98451.00
2023-02-26T07:08:14.542Z,98465.72
2023-02-26T07:10:42.811Z,98466.28
2023-02-26T07:13:09.941Z,98463.91
2023-02-26T07:15:37.112Z,98472.56
2023-02-26T07:18:04.663Z,98473.31
2023-02-26T07:20:32.817Z,98475.50
2023-02-26T07:23:00.802Z,98483.97
2023-02-26T07:25:27.985Z,98496.84
2023-02-26T07:27:56.279Z,98494.56
2023-02-26T07:30:23.486Z,98497.75
2023-02-26T07:32:50.659Z,98497.69
2023-02-26T07:35:18.930Z,98502.91
2023-02-26T07:37:46.291Z,98521.63
2023-02-26T07:40:14.495Z,98524.97
2023-02-26T07:42:42.144Z,98534.47
2023-02-26T07:45:10.313Z,98537.13
2023-02-26T07:47:37.880Z,98540.00
2023-02-26T07:50:06.257Z,98538.25
2023-02-26T07:52:33.444Z,98540.16
2023-02-26T07:55:00.652Z,98538.66
2023-02-26T07:57:27.949Z,98540.38
2023-02-26T07:59:55.217Z,98543.50
2023-02-26T08:02:23.483Z,98553.41
2023-02-26T08:04:50.867Z,98566.47
2023-02-26T08:07:18.829Z,98560.03
2023-02-26T08:09:46.157Z,98579.97
2023-02-26T08:12:13.401Z,98576.03
2023-02-26T08:14:41.645Z,98561.63
2023-02-26T08:17:10.366Z,98570.94
2023-02-26T08:19:38.312Z,98575.44
2023-02-26T08:22:06.140Z,98575.44
2023-02-26T08:24:33.561Z,98573.13
2023-02-26T08:27:00.761Z,98571.88
2023-02-26T08:29:27.993Z,98572.59
2023-02-26T08:31:55.354Z,98578.88
2023-02-26T08:34:23.269Z,98578.88
2023-02-26T08:36:50.683Z,98589.31
2023-02-26T08:39:17.882Z,98603.31
2023-02-26T08:41:45.110Z,98599.31
2023-02-26T08:44:12.396Z,98599.41
2023-02-26T08:46:39.704Z,98595.56
2023-02-26T08:49:07.399Z,98597.06
2023-02-26T08:51:34.783Z,98598.63
2023-02-26T08:54:02.381Z,98602.50
2023-02-26T08:56:29.677Z,98609.44
2023-02-26T08:58:57.296Z,98609.94
2023-02-26T09:01:24.904Z,98611.88
2023-02-26T09:03:52.302Z,98608.06
2023-02-26T09:06:19.492Z,98612.25
2023-02-26T09:08:46.721Z,98622.41
2023-02-26T09:11:13.980Z,98625.31
2023-02-26T09:13:41.704Z,98623.03
2023-02-26T09:16:09.236Z,98630.16
2023-02-26T09:18:36.949Z,98640.13
2023-02-26T09:21:04.791Z,98637.88
2023-02-26T09:23:32.077Z,98651.38
2023-02-26T09:25:59.436Z,98643.69
2023-02-26T09:28:26.736Z,98647.72
2023-02-26T09:30:57.231Z,98651.19
2023-02-26T09:33:24.506Z,98649.84
2023-02-26T09:35:52.693Z,98655.09
2023-02-26T09:38:20.724Z,98659.66
2023-02-26T09:41:10.158Z,98661.78
2023-02-26T09:44:06.508Z,98648.63
2023-02-26T09:46:48.833Z,98654.13
2023-02-26T09:49:50.832Z,98653.31
2023-02-26T09:53:38.546Z,98657.41
2023-02-26T09:56:17.576Z,98653.31
2023-02-26T09:58:45.891Z,98656.81
2023-02-26T10:01:35.381Z,98654.84
2023-02-26T10:05:09.631Z,98665.75
2023-02-26T10:07:59.849Z,98670.16
2023-02-26T10:11:12.078Z,98667.25
2023-02-26T10:13:58.327Z,98672.59
2023-02-26T10:16:34.719Z,98681.34
2023-02-26T10:19:14.514Z,98677.00
2023-02-26T10:22:19.950Z,98675.19
2023-02-26T10:25:03.848Z,98675.63
2023-02-26T10:27:55.494Z,98673.34
2023-02-26T10:30:54.678Z,98672.38
2023-02-26T10:33:39.699Z,98681.66
2023-02-26T10:36:33.735Z,98683.75
2023-02-26T10:39:31.837Z,98688.19
2023-02-26T10:42:06.793Z,98700.94
2023-02-26T10:44:52.065Z,98702.34
2023-02-26T10:48:23.477Z,98704.19
2023-02-26T10:50:59.422Z,98708.69
2023-02-26T10:53:30.944Z,98711.28
2023-02-26T10:56:12.474Z,98700.28
2023-02-26T10:58:40.097Z,98701.78
2023-02-26T11:01:23.752Z,98708.59
2023-02-26T11:04:07.158Z,98714.75
2023-02-26T11:06:47.530Z,98714.16
2023-02-26T11:09:42.496Z,98723.66
2023-02-26T11:12:13.429Z,98729.19
2023-02-26T11:14:43.726Z,98730.94
2023-02-26T11:17:27.999Z,98736.38
2023-02-26T11:20:15.235Z,98747.00
2023-02-26T11:22:50.162Z,98751.38
2023-02-26T11:25:29.785Z,98747.47
2023-02-26T11:28:21.234Z,98758.56
2023-02-26T11:30:54.081Z,98764.75
2023-02-26T11:33:37.564Z,98769.81
2023-02-26T11:36:15.896Z,98774.81
2023-02-26T11:38:53.405Z,98769.06
2023-02-26T11:41:22.733Z,98782.75
2023-02-26T11:44:08.440Z,98781.78
2023-02-26T11:46:51.140Z,98796.91
2023-02-26T11:49:24.051Z,98802.66
2023-02-26T11:52:28.866Z,98794.13
2023-02-26T11:55:04.503Z,98793.59
2023-02-26T11:57:33.585Z,98795.59
2023-02-26T12:00:18.807Z,98791.06
2023-02-26T12:02:46.374Z,98791.00
2023-02-26T12:05:18.331Z,98787.16
2023-02-26T12:07:46.941Z,98786.25
2023-02-26T12:10:23.824Z,98788.50
2023-02-26T12:14:00.978Z,98774.34
2023-02-26T12:16:54.181Z,98782.66
2023-02-26T12:19:51.828Z,98786.97
2023-02-26T12:23:00.695Z,98777.94
2023-02-26T12:26:08.530Z,98783.03
2023-02-26T12:29:13.705Z,98788.63
2023-02-26T12:32:06.142Z,98787.13
2023-02-26T12:35:15.466Z,98793.38
2023-02-26T12:38:16.364Z,98784.84
2023-02-26T12:41:03.846Z,98784.72
2023-02-26T12:43:50.703Z,98776.03
2023-02-26T12:46:54.357Z,98783.97
2023-02-26T12:49:55.256Z,98786.84
2023-02-26T12:52:56.733Z,98788.50
2023-02-26T12:56:08.572Z,98790.09
2023-02-26T12:59:21.620Z,98793.72
2023-02-26T13:02:56.114Z,98789.41
2023-02-26T13:05:59.041Z,98795.94
2023-02-26T13:12:46.879Z,98802.28
2023-02-26T13:15:58.898Z,98791.91
2023-02-26T13:18:41.760Z,98792.78
2023-02-26T13:21:22.925Z,98798.13
2023-02-26T13:24:05.406Z,98800.31
2023-02-26T13:26:34.644Z,98785.09
2023-02-26T13:29:36.381Z,98790.63
2023-02-26T13:32:14.762Z,98791.63
2023-02-26T13:35:41.893Z,98810.03
2023-02-26T13:38:32.261Z,98802.34
2023-02-26T13:41:33.733Z,98806.31
2023-02-26T13:44:42.310Z,98814.50
2023-02-26T13:48:06.255Z,98819.69
2023-02-26T13:50:57.653Z,98825.63
2023-02-26T13:53:47.992Z,98827.78
2023-02-26T13:56:42.310Z,98830.22
2023-02-26T13:59:12.526Z,98847.94
2023-02-26T14:01:54.641Z,98840.69
2023-02-26T14:04:24.660Z,98846.94
2023-02-26T14:06:57.258Z,98843.53
2023-02-26T14:09:25.785Z,98858.47
2023-02-26T14:11:55.901Z,98870.75
2023-02-26T14:14:26.441Z,98861.16
2023-02-26T14:17:08.993Z,98869.66
2023-02-26T14:20:22.233Z,98869.78
2023-02-26T14:23:09.894Z,98876.19
2023-02-26T14:25:49.572Z,98876.63
2023-02-26T14:28:26.264Z,98881.38
2023-02-26T14:31:03.372Z,98885.84
2023-02-26T14:33:39.622Z,98889.41
2023-02-26T14:36:35.553Z,98907.16
2023-02-26T14:39:09.200Z,98917.59
2023-02-26T14:41:41.367Z,98915.84
2023-02-26T14:44:22.489Z,98909.13
2023-02-26T14:46:51.403Z,98920.69
2023-02-26T14:49:35.921Z,98912.59
2023-02-26T14:52:44.051Z,98928.28
2023-02-26T14:55:12.232Z,98929.56
2023-02-26T14:58:07.708Z,98931.84
2023-02-26T15:00:41.100Z,98934.41
2023-02-26T15:03:43.241Z,98946.38
2023-02-26T15:06:57.736Z,98947.38
2023-02-26T15:10:11.528Z,98958.00
2023-02-26T15:13:41.167Z,98960.63
2023-02-26T15:16:36.685Z,98961.34
2023-02-26T15:19:44.934Z,98962.28
2023-02-26T15:22:44.903Z,98979.91
2023-02-26T15:25:36.085Z,98970.16
2023-02-26T15:28:10.806Z,98987.81
2023-02-26T15:30:38.505Z,98992.81
2023-02-26T15:33:20.451Z,99002.53
2023-02-26T15:35:53.498Z,99001.31
2023-02-26T15:38:21.439Z,99011.47
2023-02-26T15:40:53.325Z,99017.22
2023-02-26T15:43:28.665Z,99015.63
2023-02-26T15:45:58.549Z,99018.69
2023-02-26T15:48:37.436Z,99035.81
2023-02-26T15:51:09.221Z,99039.19
2023-02-26T15:53:44.985Z,99046.03
2023-02-26T15:56:30.127Z,99050.22
2023-02-26T15:59:17.272Z,99056.44
2023-02-26T16:01:44.649Z,99064.88
2023-02-26T16:04:17.657Z,99077.34
2023-02-26T16:06:52.809Z,99080.66
2023-02-26T16:09:36.705Z,99072.75
2023-02-26T16:12:38.594Z,99083.72
2023-02-26T16:15:16.064Z,99091.44
2023-02-26T16:17:48.422Z,99082.09
2023-02-26T16:20:24.969Z,99092.97
2023-02-26T16:23:12.025Z,99096.38
2023-02-26T16:25:52.104Z,99102.56
2023-02-26T16:28:43.849Z,99106.50
2023-02-26T16:31:21.148Z,99107.53
2023-02-26T16:34:31.339Z,99110.13
2023-02-26T16:37:30.336Z,99118.06
2023-02-26T16:40:35.960Z,99114.31
2023-02-26T16:43:49.772Z,99125.75
2023-02-26T16:46:45.878Z,99124.88
2023-02-26T16:49:27.165Z,99134.63
2023-02-26T16:51:56.788Z,99129.66
2023-02-26T16:54:40.708Z,99133.44
2023-02-26T16:57:41.011Z,99139.69
2023-02-26T17:00:27.637Z,99137.72
2023-02-26T17:02:57.361Z,99152.31
2023-02-26T17:05:31.257Z,99149.13
2023-02-26T17:08:18.566Z,99161.28
2023-02-26T17:10:55.815Z,99159.88
2023-02-26T17:13:33.957Z,99165.44
2023-02-26T17:16:10.128Z,99176.59
2023-02-26T17:18:37.687Z,99189.72
2023-02-26T17:21:06.117Z,99196.47
2023-02-26T17:23:38.014Z,99197.56
2023-02-26T17:26:06.137Z,99205.84
2023-02-26T17:28:40.763Z,99206.41
2023-02-26T17:31:09.125Z,99218.53
2023-02-26T17:33:38.441Z,99218.06
2023-02-26T17:36:07.376Z,99218.78
2023-02-26T17:38:34.609Z,99225.22
2023-02-26T17:41:02.127Z,99245.69
2023-02-26T17:43:29.340Z,99241.84
2023-02-26T17:45:56.611Z,99239.75
2023-02-26T17:48:24.344Z,99254.50
2023-02-26T17:50:57.500Z,99257.28
2023-02-26T17:53:33.846Z,99266.03
2023-02-26T17:56:01.201Z,99268.19
2023-02-26T17:58:34.530Z,99272.34
2023-02-26T18:01:04.069Z,99268.31
2023-02-26T18:03:31.962Z,99271.56
2023-02-26T18:05:59.788Z,99273.69
2023-02-26T18:08:35.024Z,99275.25
2023-02-26T18:11:04.113Z,99285.88
2023-02-26T18:13:31.586Z,99281.50
2023-02-26T18:16:02.044Z,99286.88
2023-02-26T18:18:29.927Z,99295.50
2023-02-26T18:20:57.534Z,99298.69
2023-02-26T18:23:25.498Z,99310.13
2023-02-26T18:25:54.853Z,99308.47
2023-02-26T18:28:27.916Z,99311.66
2023-02-26T18:30:57.971Z,99315.19
2023-02-26T18:33:26.170Z,99323.06
2023-02-26T18:35:57.172Z,99334.38
2023-02-26T18:38:28.188Z,99334.47
2023-02-26T18:40:55.983Z,99340.88
2023-02-26T18:43:23.389Z,99348.75
2023-02-26T18:45:52.376Z,99356.50
2023-02-26T18:48:21.082Z,99358.91
2023-02-26T18:50:49.851Z,99364.09
2023-02-26T18:53:17.667Z,99381.09
2023-02-26T18:55:45.339Z,99372.09
2023-02-26T18:58:13.157Z,99372.44
2023-02-26T19:00:41.729Z,99376.47
2023-02-26T19:03:09.294Z,99380.25
2023-02-26T19:05:37.632Z,99383.44
2023-02-26T19:08:06.134Z,99378.94
2023-02-26T19:10:34.267Z,99381.34
2023-02-26T19:13:02.528Z,99393.69
2023-02-26T19:15:30.405Z,99401.66
2023-02-26T19:17:57.695Z,99403.25
2023-02-26T19:20:25.033Z,99414.25
2023-02-26T19:22:52.283Z,99421.41
2023-02-26T19:25:23.763Z,99421.31
2023-02-26T19:27:53.455Z,99422.97
2023-02-26T19:30:23.273Z,99434.00
2023-02-26T19:32:51.886Z,99428.16
2023-02-26T19:35:19.578Z,99440.16
2023-02-26T19:37:47.964Z,99433.09
2023-02-26T19:40:16.720Z,99433.88
2023-02-26T19:42:44.131Z,99434.22
2023-02-26T19:45:13.808Z,99441.63
2023-02-26T19:47:41.621Z,99436.25
2023-02-26T19:50:11.211Z,99434.44
2023-02-26T19:52:38.755Z,99425.91
2023-02-26T19:55:08.381Z,99428.94
2023-02-26T19:57:35.679Z,99437.38
2023-02-26T20:00:05.210Z,99427.25
2023-02-26T20:02:39.532Z,99429.50
2023-02-26T20:05:11.464Z,99428.38
2023-02-26T20:07:41.615Z,99437.59
2023-02-26T20:10:10.461Z,99441.97
2023-02-26T20:12:37.704Z,99456.47
2023-02-26T20:15:08.266Z,99452.84
2023-02-26T20:17:35.452Z,99460.03
2023-02-26T20:20:02.726Z,99472.72
2023-02-26T20:22:31.943Z,99473.28
2023-02-26T20:24:59.361Z,99471.47
2023-02-26T20:27:26.691Z,99476.22
2023-02-26T20:29:53.918Z,99476.44
2023-02-26T20:32:25.384Z,99480.03
2023-02-26T20:34:52.752Z,99485.50
2023-02-26T20:37:19.975Z,99488.53
2023-02-26T20:39:47.406Z,99490.00
2023-02-26T20:42:14.694Z,99499.75
2023-02-26T20:44:41.801Z,99506.56
2023-02-26T20:47:09.244Z,99502.88
2023-02-26T20:49:36.463Z,99514.25
2023-02-26T20:52:04.604Z,99523.78
2023-02-26T20:54:31.869Z,99522.88
2023-02-26T20:56:59.153Z,99528.47
2023-02-26T20:59:26.446Z,99535.66
2023-02-26T21:01:53.874Z,99546.16
2023-02-26T21:04:21.402Z,99541.47
2023-02-26T21:06:48.724Z,99545.28
2023-02-26T21:09:16.717Z,99555.31
2023-02-26T21:11:44.718Z,99562.59
2023-02-26T21:14:12.107Z,99564.25
2023-02-26T21:16:42.584Z,99569.41
2023-02-26T21:19:09.836Z,99569.91
2023-02-26T21:21:37.142Z,99579.00
2023-02-26T21:24:05.001Z,99584.31
2023-02-26T21:26:34.268Z,99587.22
2023-02-26T21:29:02.732Z,99578.06
2023-02-26T21:31:30.340Z,99582.81
2023-02-26T21:34:00.668Z,99589.94
2023-02-26T21:36:29.991Z,99596.91
2023-02-26T21:38:57.348Z,99597.38
2023-02-26T21:41:25.867Z,99599.41
2023-02-26T21:43:54.179Z,99593.16
2023-02-26T21:46:22.774Z,99590.19
2023-02-26T21:48:51.448Z,99593.31
2023-02-26T21:51:21.290Z,99588.28
2023-02-26T21:53:49.670Z,99578.91
2023-02-26T21:56:17.277Z,99583.00
2023-02-26T21:58:44.582Z,99587.44
2023-02-26T22:01:12.115Z,99585.16
2023-02-26T22:03:39.718Z,99589.25
2023-02-26T22:06:07.165Z,99592.19
2023-02-26T22:08:34.486Z,99587.69
2023-02-26T22:11:01.781Z,99584.56
2023-02-26T22:13:29.286Z,99586.97
2023-02-26T22:15:56.702Z,99577.88
2023-02-26T22:18:24.010Z,99586.06
2023-02-26T22:20:51.256Z,99579.63
2023-02-26T22:23:18.583Z,99579.72
2023-02-26T22:25:46.148Z,99583.75
2023-02-26T22:28:13.803Z,99578.31
2023-02-26T22:30:42.089Z,99587.59
2023-02-26T22:33:09.266Z,99583.13
2023-02-26T22:35:36.509Z,99584.56
2023-02-26T22:38:03.867Z,99588.41
2023-02-26T22:40:32.219Z,99591.03
2023-02-26T22:42:59.502Z,99594.56
2023-02-26T22:45:26.830Z,99588.91
2023-02-26T22:47:54.313Z,99595.44
2023-02-26T22:50:21.494Z,99596.72
2023-02-26T22:52:49.267Z,99604.63
2023-02-26T22:55:17.316Z,99596.88
2023-02-26T22:57:44.703Z,99607.66
2023-02-26T23:00:18.710Z,99605.19
2023-02-26T23:02:50.639Z,99604.03
2023-02-26T23:05:19.799Z,99605.13
2023-02-26T23:07:47.490Z,99612.00
2023-02-26T23:10:19.596Z,99617.03
2023-02-26T23:12:47.113Z,99611.75
2023-02-26T23:15:15.633Z,99617.75
2023-02-26T23:17:43.332Z,99623.38
2023-02-26T23:20:13.932Z,99621.53
2023-02-26T23:22:43.803Z,99623.91
2023-02-26T23:25:12.373Z,99629.19
2023-02-26T23:27:40.513Z,99633.88
2023-02-26T23:30:11.822Z,99635.81
2023-02-26T23:32:39.340Z,99638.03
2023-02-26T23:35:07.222Z,99636.66
2023-02-26T23:37:34.566Z,99642.34
2023-02-26T23:40:01.817Z,99645.66
2023-02-26T23:42:29.108Z,99645.66
2023-02-26T23:44:56.295Z,99644.50
2023-02-26T23:47:23.548Z,99643.94
2023-02-26T23:49:50.939Z,99641.03
2023-02-26T23:52:18.464Z,99646.59
2023-02-26T23:54:46.064Z,99643.16
2023-02-26T23:57:13.299Z,99642.63
2023-02-26T23:59:40.547Z,99645.69
